Time;durP1;ratioP1;P1;durP2;ratioP2;P2;SDS_P1;SDS_P2;PMS_P1;PMS_P2;Temp;Humidity;BMP_temperature;BMP_pressure;BME280_temperature;BME280_humidity;BME280_pressure;Samples;Min_cycle;Max_cycle;Signal;HPM_P1;HPM_P2
2023/05/08 00:02:18;;;;;;;3.92;2.67;;;;;;;;;;6223265;28;20350;-77
2023/05/08 00:12:40;;;;;;;4.85;2.88;;;;;;;;;;6190148;28;20113;-77
2023/05/08 00:15:45;;;;;;;3.05;2.60;;;;;;;;;;6221533;28;20050;-77
2023/05/08 00:25:30;;;;;;;6.45;3.08;;;;;;;;;;6276522;28;20051;-78
2023/05/08 00:28:32;;;;;;;5.40;3.88;;;;;;;;;;6321236;28;20334;-77
2023/05/08 00:31:35;;;;;;;3.67;3.28;;;;;;;;;;6307216;28;20048;-77
2023/05/08 00:35:05;;;;;;;5.55;3.35;;;;;;;;;;6319865;28;20262;-77
2023/05/08 00:38:07;;;;;;;6.85;4.05;;;;;;;;;;6319587;28;20055;-77
2023/05/08 00:41:16;;;;;;;4.82;3.97;;;;;;;;;;6319319;28;20114;-77
2023/05/08 00:44:33;;;;;;;5.43;3.90;;;;;;;;;;6305897;28;20085;-79
2023/05/08 00:47:55;;;;;;;6.57;4.28;;;;;;;;;;6318299;28;20059;-76
2023/05/08 00:51:03;;;;;;;6.05;5.07;;;;;;;;;;6322204;27;20052;-78
2023/05/08 00:54:09;;;;;;;8.32;6.03;;;;;;;;;;6319892;28;20052;-77
2023/05/08 00:57:12;;;;;;;7.47;6.00;;;;;;;;;;6321199;28;20051;-78
2023/05/08 01:00:16;;;;;;;6.93;5.70;;;;;;;;;;6319287;28;20166;-76
2023/05/08 01:03:29;;;;;;;9.07;6.88;;;;;;;;;;6319243;28;20052;-78
2023/05/08 01:06:31;;;;;;;9.98;6.90;;;;;;;;;;6318543;28;20051;-76
2023/05/08 01:09:36;;;;;;;8.85;7.15;;;;;;;;;;6318194;28;20056;-77
2023/05/08 01:12:48;;;;;;;8.25;7.10;;;;;;;;;;6310258;28;20067;-76
2023/05/08 01:16:06;;;;;;;11.00;7.80;;;;;;;;;;6320513;28;20079;-76
2023/05/08 01:19:32;;;;;;;11.05;7.68;;;;;;;;;;6320537;28;20489;-78
2023/05/08 01:23:05;;;;;;;10.68;8.23;;;;;;;;;;6318429;28;20056;-78
2023/05/08 01:26:43;;;;;;;12.57;8.82;;;;;;;;;;6319084;28;20048;-77
2023/05/08 01:30:16;;;;;;;12.38;9.45;;;;;;;;;;6287167;28;20052;-77
2023/05/08 01:33:25;;;;;;;11.80;9.27;;;;;;;;;;6323220;28;20092;-75
2023/05/08 01:36:34;;;;;;;11.27;9.77;;;;;;;;;;6327037;28;20465;-77
2023/05/08 01:39:44;;;;;;;12.68;9.05;;;;;;;;;;6325591;28;20052;-77
2023/05/08 01:42:51;;;;;;;12.05;9.48;;;;;;;;;;6321721;28;20163;-77
2023/05/08 01:45:55;;;;;;;13.30;9.85;;;;;;;;;;6322815;28;20044;-76
2023/05/08 01:49:16;;;;;;;12.57;10.38;;;;;;;;;;6320864;28;20263;-77
2023/05/08 01:52:23;;;;;;;11.88;9.90;;;;;;;;;;6322985;28;20060;-77
2023/05/08 01:55:42;;;;;;;11.10;9.88;;;;;;;;;;6287170;28;20060;-78
2023/05/08 01:59:16;;;;;;;14.10;11.45;;;;;;;;;;6326615;28;20111;-77
2023/05/08 02:02:18;;;;;;;13.38;10.13;;;;;;;;;;6319401;28;20052;-78
2023/05/08 02:05:22;;;;;;;13.77;10.20;;;;;;;;;;6322069;28;20166;-77
2023/05/08 02:08:25;;;;;;;13.65;10.80;;;;;;;;;;6324486;28;20060;-78
2023/05/08 02:11:31;;;;;;;13.95;10.13;;;;;;;;;;6322655;28;20051;-78
2023/05/08 02:14:34;;;;;;;14.48;10.77;;;;;;;;;;6324001;28;20495;-77
2023/05/08 02:17:53;;;;;;;11.90;9.95;;;;;;;;;;6315383;27;20102;-77
2023/05/08 02:21:09;;;;;;;;;;;;;;;;;;;;;
2023/05/08 02:24:14;;;;;;;14.40;9.90;;;;;;;;;;6328383;28;20101;-77
2023/05/08 02:27:16;;;;;;;15.02;11.68;;;;;;;;;;6327331;28;20300;-78
2023/05/08 02:30:19;;;;;;;16.45;11.68;;;;;;;;;;6324726;28;20059;-80
2023/05/08 02:37:49;;;;;;;14.68;11.48;;;;;;;;;;6188257;28;20049;-79
2023/05/08 02:45:03;;;;;;;18.92;15.40;;;;;;;;;;6101672;29;20051;-81
2023/05/08 02:51:49;;;;;;;18.50;13.88;;;;;;;;;;6030756;29;20046;-80
2023/05/08 02:55:03;;;;;;;17.30;11.60;;;;;;;;;;6032318;29;20049;-78
2023/05/08 02:58:17;;;;;;;19.00;12.32;;;;;;;;;;6033949;29;20063;-80
2023/05/08 03:01:45;;;;;;;14.23;10.98;;;;;;;;;;6038010;29;20049;-80
2023/05/08 03:04:56;;;;;;;19.10;11.77;;;;;;;;;;6028848;29;20054;-80
2023/05/08 03:08:05;;;;;;;15.30;11.32;;;;;;;;;;6032189;29;20057;-77
2023/05/08 03:11:39;;;;;;;12.27;10.45;;;;;;;;;;6021909;29;20120;-81
2023/05/08 03:14:53;;;;;;;13.02;9.43;;;;;;;;;;6101369;29;20056;-79
2023/05/08 03:25:52;;;;;;;13.63;9.27;;;;;;;;;;5990414;29;20283;-80
2023/05/08 04:13:13;;;;;;;20.50;14.45;;;;;;;;;;6096017;28;20043;-80
2023/05/08 04:16:19;;;;;;;21.77;15.05;;;;;;;;;;6075524;29;20241;-80
2023/05/08 04:19:24;;;;;;;19.88;14.93;;;;;;;;;;6079572;29;20696;-80
2023/05/08 04:23:18;;;;;;;20.02;15.30;;;;;;;;;;6077499;29;20064;-78
2023/05/08 04:26:21;;;;;;;17.02;13.15;;;;;;;;;;6016551;29;20053;-80
2023/05/08 04:29:24;;;;;;;16.73;13.77;;;;;;;;;;6033127;29;20049;-80
2023/05/08 04:32:27;;;;;;;16.58;14.20;;;;;;;;;;6032001;29;20065;-79
2023/05/08 04:35:29;;;;;;;17.90;13.88;;;;;;;;;;6035012;29;20077;-80
2023/05/08 04:41:47;;;;;;;16.30;13.38;;;;;;;;;;6026110;29;20131;-79
2023/05/08 04:44:50;;;;;;;17.65;13.73;;;;;;;;;;6036269;29;20344;-79
2023/05/08 04:47:52;;;;;;;20.30;14.45;;;;;;;;;;6051418;29;20077;-79
2023/05/08 04:51:31;;;;;;;16.08;13.73;;;;;;;;;;6053271;29;20061;-82
2023/05/08 04:54:33;;;;;;;18.02;14.25;;;;;;;;;;6179465;28;20054;-78
2023/05/08 04:57:35;;;;;;;17.33;13.65;;;;;;;;;;6188280;28;20089;-79
2023/05/08 05:00:38;;;;;;;17.08;13.68;;;;;;;;;;6221799;28;20055;-81
2023/05/08 05:03:42;;;;;;;16.38;13.63;;;;;;;;;;6324101;28;20064;-78
2023/05/08 05:06:44;;;;;;;17.55;13.82;;;;;;;;;;6326754;28;20048;-79
2023/05/08 05:09:47;;;;;;;15.10;12.55;;;;;;;;;;6327530;28;20061;-79
2023/05/08 05:12:48;;;;;;;15.27;13.13;;;;;;;;;;6327573;28;20048;-78
2023/05/08 05:15:53;;;;;;;15.95;12.63;;;;;;;;;;6328739;28;20065;-78
2023/05/08 05:19:15;;;;;;;15.88;12.77;;;;;;;;;;6284640;28;20132;-78
2023/05/08 05:22:17;;;;;;;16.13;12.45;;;;;;;;;;6320346;28;20060;-79
2023/05/08 05:25:22;;;;;;;15.73;12.63;;;;;;;;;;6327701;28;20058;-80
2023/05/08 05:28:24;;;;;;;18.27;13.10;;;;;;;;;;6324567;28;20055;-78
2023/05/08 05:31:28;;;;;;;14.15;11.40;;;;;;;;;;6327167;28;20355;-79
2023/05/08 05:34:29;;;;;;;15.02;11.50;;;;;;;;;;6326214;28;20062;-79
2023/05/08 05:37:31;;;;;;;16.50;11.98;;;;;;;;;;6323762;28;20063;-78
2023/05/08 05:40:33;;;;;;;14.23;11.45;;;;;;;;;;6327884;28;20047;-79
2023/05/08 05:43:35;;;;;;;12.85;11.52;;;;;;;;;;6327106;28;20048;-79
2023/05/08 05:46:53;;;;;;;15.45;10.63;;;;;;;;;;6326360;28;20060;-79
2023/05/08 05:50:02;;;;;;;15.13;11.00;;;;;;;;;;6320674;28;20056;-78
2023/05/08 05:53:11;;;;;;;12.30;10.13;;;;;;;;;;6323038;27;20047;-79
2023/05/08 05:56:14;;;;;;;14.00;10.23;;;;;;;;;;6324194;28;20071;-80
2023/05/08 06:03:18;;;;;;;15.48;10.18;;;;;;;;;;6293240;28;20371;-79
2023/05/08 06:06:21;;;;;;;18.85;10.30;;;;;;;;;;6324410;28;20875;-78
2023/05/08 06:09:23;;;;;;;13.23;9.63;;;;;;;;;;6324557;28;20061;-78
2023/05/08 06:12:26;;;;;;;12.75;9.30;;;;;;;;;;6326071;28;20352;-77
2023/05/08 06:15:38;;;;;;;16.02;9.50;;;;;;;;;;6325054;28;20235;-78
2023/05/08 06:18:42;;;;;;;14.00;9.68;;;;;;;;;;6326346;27;20059;-78
2023/05/08 06:21:44;;;;;;;11.43;8.13;;;;;;;;;;6328710;28;20115;-79
2023/05/08 06:24:45;;;;;;;11.77;6.65;;;;;;;;;;6327774;28;20063;-78
2023/05/08 06:27:47;;;;;;;11.38;8.13;;;;;;;;;;6324694;28;20354;-77
2023/05/08 06:30:49;;;;;;;11.68;8.52;;;;;;;;;;6323944;28;20351;-78
2023/05/08 06:33:52;;;;;;;14.15;9.18;;;;;;;;;;6325655;28;20052;-78
2023/05/08 06:37:28;;;;;;;14.70;8.55;;;;;;;;;;6325571;28;20048;-78
2023/05/08 06:40:30;;;;;;;17.00;9.73;;;;;;;;;;6325219;28;20274;-78
2023/05/08 06:43:34;;;;;;;13.07;9.35;;;;;;;;;;6324437;28;20048;-78
2023/05/08 06:46:36;;;;;;;11.90;8.90;;;;;;;;;;6323377;28;20048;-78
2023/05/08 06:49:39;;;;;;;12.63;9.88;;;;;;;;;;6323099;28;20075;-78
2023/05/08 06:52:41;;;;;;;12.23;9.20;;;;;;;;;;6324808;28;20259;-78
2023/05/08 06:55:56;;;;;;;12.55;9.30;;;;;;;;;;6325919;27;20308;-78
2023/05/08 06:58:58;;;;;;;13.43;9.48;;;;;;;;;;6297809;28;20065;-76
2023/05/08 07:02:01;;;;;;;10.30;8.60;;;;;;;;;;6324133;28;20181;-79
2023/05/08 07:05:05;;;;;;;11.10;8.20;;;;;;;;;;6324876;28;20060;-78
2023/05/08 07:08:10;;;;;;;10.68;8.50;;;;;;;;;;6285312;28;20045;-78
2023/05/08 07:11:18;;;;;;;10.95;8.40;;;;;;;;;;6274010;28;20233;-78
2023/05/08 07:14:20;;;;;;;13.73;9.20;;;;;;;;;;6276540;28;20048;-78
2023/05/08 07:17:25;;;;;;;9.70;7.90;;;;;;;;;;6277065;28;20781;-78
2023/05/08 07:23:58;;;;;;;7.40;6.38;;;;;;;;;;6276454;28;20244;-76
2023/05/08 07:27:00;;;;;;;10.02;7.57;;;;;;;;;;6273778;28;20063;-77
2023/05/08 07:30:02;;;;;;;7.55;6.78;;;;;;;;;;6276655;28;20204;-77
2023/05/08 07:33:24;;;;;;;13.87;6.47;;;;;;;;;;6276762;28;20057;-79
2023/05/08 07:36:46;;;;;;;8.60;6.22;;;;;;;;;;6265408;28;20053;-78
2023/05/08 07:39:50;;;;;;;6.75;5.75;;;;;;;;;;6297575;28;20107;-78
2023/05/08 07:42:52;;;;;;;9.20;5.82;;;;;;;;;;6322779;28;20101;-79
2023/05/08 07:45:56;;;;;;;6.90;5.10;;;;;;;;;;6323548;28;20263;-78
2023/05/08 07:48:58;;;;;;;8.05;5.65;;;;;;;;;;6320535;28;20085;-78
2023/05/08 07:52:03;;;;;;;8.48;6.22;;;;;;;;;;6323831;28;20211;-79
2023/05/08 07:55:06;;;;;;;8.93;7.03;;;;;;;;;;6325079;28;20052;-79
2023/05/08 07:58:08;;;;;;;8.82;6.75;;;;;;;;;;6323648;28;20062;-79
2023/05/08 08:01:20;;;;;;;9.15;7.15;;;;;;;;;;6325347;28;20067;-78
2023/05/08 08:04:23;;;;;;;10.82;7.18;;;;;;;;;;6324525;28;20052;-79
2023/05/08 08:07:26;;;;;;;9.63;7.90;;;;;;;;;;6323145;27;20040;-78
2023/05/08 08:10:28;;;;;;;9.10;7.40;;;;;;;;;;6310280;28;20048;-78
2023/05/08 08:13:31;;;;;;;8.38;7.32;;;;;;;;;;6323275;28;20107;-79
2023/05/08 08:16:33;;;;;;;8.68;7.57;;;;;;;;;;6323218;28;20056;-79
2023/05/08 08:20:15;;;;;;;8.45;7.22;;;;;;;;;;6311779;28;20052;-80
2023/05/08 08:23:19;;;;;;;11.27;8.73;;;;;;;;;;6321358;28;20309;-79
2023/05/08 08:26:24;;;;;;;10.00;9.00;;;;;;;;;;6324622;28;20111;-80
2023/05/08 08:29:26;;;;;;;10.45;8.52;;;;;;;;;;6324273;28;20103;-79
2023/05/08 08:32:34;;;;;;;8.55;7.47;;;;;;;;;;6321164;28;20079;-79
2023/05/08 08:35:36;;;;;;;10.00;7.65;;;;;;;;;;6321583;28;20060;-80
2023/05/08 08:38:40;;;;;;;7.68;6.88;;;;;;;;;;6319197;28;20287;-79
2023/05/08 08:41:42;;;;;;;8.60;6.55;;;;;;;;;;6321546;28;20056;-78
2023/05/08 08:44:46;;;;;;;7.10;6.38;;;;;;;;;;6319442;28;20052;-80
2023/05/08 08:47:48;;;;;;;8.00;7.10;;;;;;;;;;6322669;28;20060;-78
2023/05/08 08:50:52;;;;;;;8.02;6.15;;;;;;;;;;6323477;28;20112;-79
2023/05/08 08:54:04;;;;;;;7.93;6.65;;;;;;;;;;6322374;28;20052;-79
2023/05/08 08:57:07;;;;;;;6.60;5.90;;;;;;;;;;6321998;28;20048;-78
2023/05/08 09:00:12;;;;;;;9.10;6.13;;;;;;;;;;6321972;28;20335;-79
2023/05/08 09:03:14;;;;;;;6.65;5.50;;;;;;;;;;6322710;28;20240;-79
2023/05/08 09:06:19;;;;;;;9.52;5.88;;;;;;;;;;6322182;28;20133;-78
2023/05/08 09:09:22;;;;;;;7.40;5.47;;;;;;;;;;6323009;28;20340;-78
2023/05/08 09:12:23;;;;;;;;;;;;;;;;;;6324616;28;20056;-79
2023/05/08 09:15:25;;;;;;;7.53;4.80;;;;;;;;;;6324109;28;19924;-78
2023/05/08 09:18:27;;;;;;;10.63;5.97;;;;;;;;;;6321027;28;20056;-78
2023/05/08 09:21:30;;;;;;;7.85;5.18;;;;;;;;;;6324423;28;20069;-78
2023/05/08 09:28:46;;;;;;;4.63;3.40;;;;;;;;;;6322253;28;20332;-77
2023/05/08 09:31:54;;;;;;;4.55;4.05;;;;;;;;;;6320762;28;20075;-78
2023/05/08 09:35:13;;;;;;;4.78;3.95;;;;;;;;;;6326999;28;20062;-78
2023/05/08 09:38:33;;;;;;;5.07;3.95;;;;;;;;;;6321163;28;20093;-78
2023/05/08 09:41:35;;;;;;;5.50;4.07;;;;;;;;;;6322786;28;20051;-77
2023/05/08 09:44:49;;;;;;;5.25;4.50;;;;;;;;;;6320539;28;20097;-78
2023/05/08 09:47:51;;;;;;;3.33;2.95;;;;;;;;;;6321190;28;20052;-76
2023/05/08 09:51:05;;;;;;;3.40;3.00;;;;;;;;;;6329289;28;20051;-78
2023/05/08 09:54:17;;;;;;;4.15;3.75;;;;;;;;;;6327423;28;20048;-78
2023/05/08 09:57:20;;;;;;;5.75;4.00;;;;;;;;;;6328255;28;20115;-78
2023/05/08 10:00:55;;;;;;;4.10;3.70;;;;;;;;;;6326080;28;20313;-78
2023/05/08 10:04:00;;;;;;;6.72;4.38;;;;;;;;;;6308254;28;20357;-77
2023/05/08 10:07:03;;;;;;;5.18;3.78;;;;;;;;;;6328386;28;20057;-78
2023/05/08 10:10:07;;;;;;;4.75;3.50;;;;;;;;;;6323832;28;20712;-78
2023/05/08 10:13:09;;;;;;;4.25;3.10;;;;;;;;;;6322663;28;20064;-78
2023/05/08 10:16:15;;;;;;;4.18;3.40;;;;;;;;;;6326664;28;20131;-78
2023/05/08 10:19:22;;;;;;;5.32;3.25;;;;;;;;;;6326191;28;20048;-77
2023/05/08 10:22:25;;;;;;;3.90;3.40;;;;;;;;;;6325794;28;20087;-77
2023/05/08 10:25:37;;;;;;;62.53;49.10;;;;;;;;;;6326804;28;20059;-78
2023/05/08 10:32:46;;;;;;;39.03;25.92;;;;;;;;;;6322540;27;20217;-79
2023/05/08 10:35:51;;;;;;;35.97;26.23;;;;;;;;;;6325136;28;20055;-79
2023/05/08 10:38:56;;;;;;;9.20;6.65;;;;;;;;;;6324303;28;20044;-78
2023/05/08 10:42:07;;;;;;;15.07;10.55;;;;;;;;;;6325539;28;20044;-79
2023/05/08 10:48:58;;;;;;;5.57;4.03;;;;;;;;;;6309137;28;20051;-78
2023/05/08 10:52:13;;;;;;;6.28;3.65;;;;;;;;;;6326568;28;20115;-79
2023/05/08 10:55:30;;;;;;;3.33;3.00;;;;;;;;;;6323429;28;20052;-77
2023/05/08 10:58:33;;;;;;;3.63;2.60;;;;;;;;;;6309772;28;20044;-77
2023/05/08 11:01:37;;;;;;;;;;;;;;;;;;6324215;28;20063;-77
2023/05/08 11:04:40;;;;;;;3.00;2.70;;;;;;;;;;6323053;28;19924;-76
2023/05/08 11:07:55;;;;;;;3.35;2.97;;;;;;;;;;6323404;28;20052;-76
2023/05/08 11:11:05;;;;;;;2.90;2.38;;;;;;;;;;6321526;28;20190;-76
2023/05/08 11:14:12;;;;;;;3.65;2.67;;;;;;;;;;6321830;28;20114;-75
2023/05/08 11:17:23;;;;;;;6.43;3.10;;;;;;;;;;6327694;27;20089;-76
2023/05/08 11:20:38;;;;;;;5.63;2.72;;;;;;;;;;6324794;28;20311;-76
2023/05/08 11:23:40;;;;;;;5.10;2.83;;;;;;;;;;6322991;28;20067;-76
2023/05/08 11:26:42;;;;;;;3.20;2.90;;;;;;;;;;6321932;28;20052;-76
2023/05/08 11:29:44;;;;;;;3.40;3.05;;;;;;;;;;6327596;28;20044;-76
2023/05/08 11:33:01;;;;;;;5.82;2.60;;;;;;;;;;6324464;28;20056;-75
2023/05/08 11:36:14;;;;;;;3.20;2.63;;;;;;;;;;6323218;28;20116;-75
2023/05/08 11:39:19;;;;;;;5.35;2.88;;;;;;;;;;6321482;28;20255;-75
2023/05/08 11:42:42;;;;;;;3.72;3.35;;;;;;;;;;6320456;28;20056;-75
2023/05/08 11:45:43;;;;;;;7.13;3.22;;;;;;;;;;6321115;28;20339;-77
2023/05/08 11:48:46;;;;;;;2.85;2.65;;;;;;;;;;6320789;28;20064;-76
2023/05/08 11:51:53;;;;;;;;;;;;;;;;;;6320017;28;20066;-77
2023/05/08 11:54:55;;;;;;;3.95;2.30;;;;;;;;;;6322506;28;19923;-76
2023/05/08 11:57:57;;;;;;;3.75;2.60;;;;;;;;;;6323639;28;20075;-76
2023/05/08 12:00:59;;;;;;;4.22;2.60;;;;;;;;;;6322966;28;20123;-77
2023/05/08 12:04:01;;;;;;;2.40;2.10;;;;;;;;;;6325970;28;20048;-76
2023/05/08 12:07:06;;;;;;;5.53;2.83;;;;;;;;;;6323031;28;20066;-77
2023/05/08 12:10:11;;;;;;;2.88;2.58;;;;;;;;;;6320172;28;20266;-77
2023/05/08 12:13:17;;;;;;;4.78;2.83;;;;;;;;;;6320698;27;20062;-75
2023/05/08 12:16:20;;;;;;;124.63;74.70;;;;;;;;;;6323388;28;20060;-75
2023/05/08 12:19:21;;;;;;;;;;;;;;;;;;6324950;28;20072;-76
2023/05/08 12:22:25;;;;;;;18.83;11.35;;;;;;;;;;6321122;28;20188;-76
2023/05/08 12:25:29;;;;;;;162.02;144.25;;;;;;;;;;6316288;28;20055;-75
2023/05/08 12:28:32;;;;;;;8.25;5.20;;;;;;;;;;6323040;28;20286;-75
2023/05/08 12:31:34;;;;;;;;;;;;;;;;;;6321838;28;20127;-75
2023/05/08 12:34:36;;;;;;;5.30;3.22;;;;;;;;;;6321564;28;19978;-76
2023/05/08 12:37:39;;;;;;;65.33;40.63;;;;;;;;;;6320651;28;20374;-76
2023/05/08 12:40:42;;;;;;;31.33;20.75;;;;;;;;;;6321210;28;20458;-76
2023/05/08 12:43:47;;;;;;;596.17;539.30;;;;;;;;;;6321850;28;20056;-75
2023/05/08 12:46:51;;;;;;;924.50;840.60;;;;;;;;;;6323070;28;20185;-76
2023/05/08 12:49:57;;;;;;;24.20;14.77;;;;;;;;;;6323181;28;20056;-75
2023/05/08 12:53:04;;;;;;;11.10;5.68;;;;;;;;;;6321832;28;20104;-75
2023/05/08 12:56:06;;;;;;;202.35;182.40;;;;;;;;;;6324711;28;20059;-75
2023/05/08 12:59:16;;;;;;;9.23;6.93;;;;;;;;;;6319460;28;20051;-77
2023/05/08 13:02:20;;;;;;;164.55;137.90;;;;;;;;;;6322179;28;20048;-77
2023/05/08 13:05:48;;;;;;;532.72;483.60;;;;;;;;;;6316862;28;20051;-76
2023/05/08 13:08:55;;;;;;;305.17;273.92;;;;;;;;;;6319473;28;20052;-76
2023/05/08 13:11:57;;;;;;;51.58;32.20;;;;;;;;;;6323260;28;20051;-75
2023/05/08 13:15:03;;;;;;;113.70;102.60;;;;;;;;;;6319428;28;20048;-75
2023/05/08 13:18:06;;;;;;;442.88;402.23;;;;;;;;;;6321019;28;20123;-75
2023/05/08 13:21:10;;;;;;;;;;;;;;;;;;6307265;28;20053;-76
2023/05/08 13:24:14;;;;;;;23.35;16.33;;;;;;;;;;6323617;28;20215;-75
2023/05/08 13:27:34;;;;;;;27.27;21.27;;;;;;;;;;6328768;28;20090;-76
2023/05/08 13:30:36;;;;;;;622.42;565.55;;;;;;;;;;6326578;28;20056;-75
2023/05/08 13:33:47;;;;;;;;;;;;;;;;;;6325823;28;20044;-76
2023/05/08 13:36:51;;;;;;;599.08;548.53;;;;;;;;;;6325275;28;19973;-76
2023/05/08 13:39:54;;;;;;;397.88;364.15;;;;;;;;;;6326149;28;20052;-76
2023/05/08 13:46:49;;;;;;;1012.35;931.80;;;;;;;;;;6272714;28;20073;-75
2023/05/08 13:50:15;;;;;;;1148.00;999.90;;;;;;;;;;6264523;28;20119;-75
2023/05/08 13:53:19;;;;;;;682.30;620.47;;;;;;;;;;6264226;28;20044;-75
2023/05/08 13:56:37;;;;;;;213.93;192.90;;;;;;;;;;6275093;28;20053;-75
2023/05/08 13:59:41;;;;;;;111.50;82.97;;;;;;;;;;6272030;28;20389;-77
2023/05/08 14:02:43;;;;;;;224.88;204.40;;;;;;;;;;6275214;28;20359;-75
2023/05/08 14:05:45;;;;;;;493.27;452.52;;;;;;;;;;6277539;28;20068;-75
2023/05/08 14:08:47;;;;;;;349.17;313.75;;;;;;;;;;6274359;28;20163;-75
2023/05/08 14:11:50;;;;;;;797.70;723.63;;;;;;;;;;6275992;28;20052;-75
2023/05/08 14:14:52;;;;;;;176.10;159.90;;;;;;;;;;6274104;28;20053;-75
2023/05/08 14:17:56;;;;;;;449.80;408.00;;;;;;;;;;6274936;28;20063;-76
2023/05/08 14:20:58;;;;;;;780.22;706.22;;;;;;;;;;6272842;28;20144;-75
2023/05/08 14:24:00;;;;;;;499.02;458.10;;;;;;;;;;6283407;28;20071;-75
2023/05/08 14:27:04;;;;;;;621.63;567.55;;;;;;;;;;6284779;28;20116;-75
2023/05/08 14:30:09;;;;;;;359.63;321.00;;;;;;;;;;6277864;28;20109;-75
2023/05/08 14:33:16;;;;;;;18.33;13.43;;;;;;;;;;6274118;28;20325;-75
2023/05/08 14:36:18;;;;;;;407.13;369.58;;;;;;;;;;6274029;28;20244;-75
2023/05/08 14:39:19;;;;;;;2.92;2.67;;;;;;;;;;6274517;28;20055;-75
2023/05/08 14:42:22;;;;;;;113.88;88.63;;;;;;;;;;6275522;28;20072;-76
2023/05/08 14:45:24;;;;;;;115.70;99.05;;;;;;;;;;6313174;28;20063;-75
2023/05/08 14:48:27;;;;;;;253.53;181.23;;;;;;;;;;6326401;28;20052;-75
2023/05/08 14:51:30;;;;;;;103.13;60.05;;;;;;;;;;6322165;28;20056;-76
2023/05/08 14:54:31;;;;;;;82.03;51.80;;;;;;;;;;6323565;28;20058;-75
2023/05/08 14:57:35;;;;;;;206.03;118.83;;;;;;;;;;6325105;28;20326;-75
2023/05/08 15:00:41;;;;;;;241.05;203.35;;;;;;;;;;6323325;28;20054;-75
2023/05/08 15:03:46;;;;;;;40.97;28.40;;;;;;;;;;6322415;28;20068;-75
2023/05/08 15:06:47;;;;;;;191.27;170.82;;;;;;;;;;6323273;28;20071;-75
2023/05/08 15:09:49;;;;;;;647.80;589.95;;;;;;;;;;6297034;28;20037;-75
2023/05/08 15:13:13;;;;;;;442.13;398.30;;;;;;;;;;6316263;28;20050;-75
2023/05/08 15:16:15;;;;;;;588.42;533.95;;;;;;;;;;6319371;28;20066;-76
2023/05/08 15:19:17;;;;;;;38.50;34.78;;;;;;;;;;6322728;28;20035;-75
2023/05/08 15:22:19;;;;;;;128.17;85.47;;;;;;;;;;6322305;28;20066;-75
2023/05/08 15:25:30;;;;;;;120.93;96.85;;;;;;;;;;6325531;28;20301;-74
2023/05/08 15:28:33;;;;;;;842.25;773.15;;;;;;;;;;6312240;28;20348;-75
2023/05/08 15:31:36;;;;;;;424.98;386.90;;;;;;;;;;6293795;28;20070;-76
2023/05/08 15:34:38;;;;;;;35.38;22.90;;;;;;;;;;6323673;28;20071;-75
2023/05/08 15:37:40;;;;;;;220.45;199.90;;;;;;;;;;6321995;28;20048;-74
2023/05/08 15:44:02;;;;;;;335.70;302.55;;;;;;;;;;6322550;28;20110;-75
2023/05/08 15:47:04;;;;;;;498.25;455.65;;;;;;;;;;6322503;28;20043;-74
2023/05/08 15:50:10;;;;;;;10.82;7.18;;;;;;;;;;6321999;28;20354;-75
2023/05/08 15:57:08;;;;;;;387.35;353.42;;;;;;;;;;6171465;28;20058;-75
2023/05/08 16:00:38;;;;;;;332.88;300.08;;;;;;;;;;6197150;28;20266;-75
2023/05/08 16:04:04;;;;;;;202.65;181.93;;;;;;;;;;6182956;28;20057;-74
2023/05/08 16:07:13;;;;;;;532.08;485.08;;;;;;;;;;6119981;28;20354;-74
2023/05/08 16:10:16;;;;;;;24.98;22.45;;;;;;;;;;6196311;28;20056;-75
2023/05/08 16:16:48;;;;;;;271.20;247.52;;;;;;;;;;6191121;28;20096;-74
2023/05/08 16:19:50;;;;;;;879.45;799.70;;;;;;;;;;6196772;28;20042;-74
2023/05/08 16:26:16;;;;;;;203.77;182.40;;;;;;;;;;6177303;28;20084;-74
2023/05/08 16:29:18;;;;;;;;;;;;;;;;;;6196789;28;20292;-74
2023/05/08 16:32:21;;;;;;;244.68;221.88;;;;;;;;;;6210846;28;20135;-74
2023/05/08 16:35:23;;;;;;;1146.15;999.90;;;;;;;;;;6321643;28;20064;-74
2023/05/08 16:38:34;;;;;;;663.92;615.75;;;;;;;;;;6322529;28;20336;-74
2023/05/08 16:41:36;;;;;;;2.47;2.10;;;;;;;;;;6322126;28;20056;-74
2023/05/08 16:44:38;;;;;;;24.25;22.17;;;;;;;;;;6320510;28;20068;-74
2023/05/08 16:47:41;;;;;;;467.63;431.27;;;;;;;;;;6320316;28;20331;-74
2023/05/08 16:50:42;;;;;;;826.85;765.92;;;;;;;;;;6322003;28;20052;-74
2023/05/08 16:54:08;;;;;;;4.45;2.45;;;;;;;;;;6319961;28;20312;-74
2023/05/08 16:57:10;;;;;;;252.77;233.65;;;;;;;;;;6307951;28;20104;-75
2023/05/08 17:03:39;;;;;;;633.42;585.17;;;;;;;;;;6326897;28;20274;-75
2023/05/08 17:06:48;;;;;;;699.75;647.17;;;;;;;;;;6312882;28;22890;-78
2023/05/08 17:09:56;;;;;;;2.22;1.67;;;;;;;;;;6329905;28;20067;-74
2023/05/08 17:12:58;;;;;;;5.07;2.53;;;;;;;;;;6324583;28;20251;-74
2023/05/08 17:19:41;;;;;;;821.80;762.88;;;;;;;;;;6298640;28;20051;-78
2023/05/08 17:22:47;;;;;;;72.43;66.72;;;;;;;;;;6324861;28;20048;-79
2023/05/08 17:30:05;;;;;;;5.63;3.10;;;;;;;;;;6310437;28;20279;-75
2023/05/08 17:33:07;;;;;;;190.90;158.38;;;;;;;;;;6249628;28;20052;-74
2023/05/08 17:36:49;;;;;;;22.02;15.27;;;;;;;;;;6312214;28;20084;-77
2023/05/08 17:39:52;;;;;;;3.05;2.25;;;;;;;;;;6322780;28;20409;-73
2023/05/08 17:42:54;;;;;;;3.05;1.90;;;;;;;;;;6323079;28;20267;-74
2023/05/08 17:45:56;;;;;;;3.88;2.10;;;;;;;;;;6326448;28;20075;-74
2023/05/08 17:48:58;;;;;;;2.63;2.13;;;;;;;;;;6325433;28;20055;-75
2023/05/08 17:55:37;;;;;;;3.65;2.00;;;;;;;;;;6304657;28;20430;-75
2023/05/08 17:58:45;;;;;;;6.05;2.13;;;;;;;;;;6325938;28;20060;-74
2023/05/08 18:01:47;;;;;;;2.70;1.85;;;;;;;;;;6325542;28;20068;-74
2023/05/08 18:04:49;;;;;;;3.95;2.03;;;;;;;;;;6324453;28;20158;-73
2023/05/08 18:07:52;;;;;;;3.28;1.70;;;;;;;;;;6323372;28;20370;-76
2023/05/08 18:10:55;;;;;;;5.95;4.20;;;;;;;;;;6312687;28;20052;-74
2023/05/08 18:13:57;;;;;;;4.65;3.20;;;;;;;;;;6322481;28;20044;-77
2023/05/08 18:17:00;;;;;;;4.32;2.30;;;;;;;;;;6326316;28;20110;-72
2023/05/08 18:20:06;;;;;;;2.88;2.28;;;;;;;;;;6329118;28;20044;-76
2023/05/08 18:23:08;;;;;;;6.07;3.42;;;;;;;;;;6311098;28;20058;-75
2023/05/08 18:26:26;;;;;;;3.63;2.58;;;;;;;;;;6329196;28;20073;-74
2023/05/08 18:33:00;;;;;;;5.35;2.92;;;;;;;;;;6314932;28;20336;-78
2023/05/08 18:36:05;;;;;;;3.75;2.67;;;;;;;;;;6328551;28;20085;-77
2023/05/08 18:39:07;;;;;;;6.43;3.78;;;;;;;;;;6329256;28;20220;-77
2023/05/08 18:42:14;;;;;;;28.35;21.77;;;;;;;;;;6327176;28;20066;-77
2023/05/08 18:52:55;;;;;;;3.30;2.70;;;;;;;;;;6116040;28;20046;-78
2023/05/08 19:00:15;;;;;;;;;;;;;;;;;;;;;
2023/05/08 19:03:20;;;;;;;5.07;3.35;;;;;;;;;;6239187;28;20895;-77
2023/05/08 19:06:24;;;;;;;4.18;3.30;;;;;;;;;;6246529;28;20089;-76
2023/05/08 19:09:52;;;;;;;96.88;87.60;;;;;;;;;;6250025;28;20176;-76
2023/05/08 19:13:04;;;;;;;;;;;;;;;;;;;;;
2023/05/08 19:16:08;;;;;;;5.72;4.10;;;;;;;;;;6252528;28;20308;-76
2023/05/08 19:19:51;;;;;;;;;;;;;;;;;;;;;
2023/05/08 19:30:30;;;;;;;27.65;14.95;;;;;;;;;;6155692;28;20055;-76
2023/05/08 19:33:32;;;;;;;194.80;172.63;;;;;;;;;;6176932;28;20055;-76
2023/05/08 19:36:49;;;;;;;608.88;556.78;;;;;;;;;;6178311;28;20335;-76
2023/05/08 19:39:53;;;;;;;8.60;4.90;;;;;;;;;;6214036;28;20046;-76
2023/05/08 19:42:57;;;;;;;7.38;4.25;;;;;;;;;;6246772;28;20238;-75
2023/05/08 19:46:00;;;;;;;232.75;211.57;;;;;;;;;;6248125;28;20054;-76
2023/05/08 19:49:02;;;;;;;54.83;42.83;;;;;;;;;;6246786;28;20073;-75
2023/05/08 19:52:22;;;;;;;6.47;4.28;;;;;;;;;;6244622;28;20095;-75
2023/05/08 19:55:24;;;;;;;281.80;254.98;;;;;;;;;;6248180;28;20048;-75
2023/05/08 19:58:26;;;;;;;5.68;4.20;;;;;;;;;;6241119;28;20149;-76
2023/05/08 20:01:33;;;;;;;219.25;198.80;;;;;;;;;;6246288;28;20065;-75
2023/05/08 20:04:35;;;;;;;73.38;65.32;;;;;;;;;;6326285;28;20478;-76
2023/05/08 20:07:56;;;;;;;8.88;5.05;;;;;;;;;;6326981;28;20100;-75
2023/05/08 20:11:11;;;;;;;247.70;227.45;;;;;;;;;;6322529;28;20058;-79
2023/05/08 20:14:13;;;;;;;13.15;7.90;;;;;;;;;;6316404;28;20048;-76
2023/05/08 20:17:15;;;;;;;8.27;5.10;;;;;;;;;;6325612;28;20044;-76
2023/05/08 20:20:28;;;;;;;8.85;5.53;;;;;;;;;;6322630;28;20105;-76
2023/05/08 20:23:38;;;;;;;6.50;4.87;;;;;;;;;;6304151;28;20052;-76
2023/05/08 20:26:40;;;;;;;7.25;4.72;;;;;;;;;;6321467;28;20138;-76
2023/05/08 20:29:46;;;;;;;24.02;17.98;;;;;;;;;;6323481;28;20073;-76
2023/05/08 20:36:10;;;;;;;118.30;105.45;;;;;;;;;;6278289;28;20047;-74
2023/05/08 20:39:14;;;;;;;263.98;238.95;;;;;;;;;;6326247;28;20089;-74
2023/05/08 20:42:23;;;;;;;39.10;18.17;;;;;;;;;;6302696;28;20396;-74
2023/05/08 20:48:50;;;;;;;16.33;10.68;;;;;;;;;;6320958;28;20248;-74
2023/05/08 20:52:17;;;;;;;217.32;166.52;;;;;;;;;;6324438;28;20059;-74
2023/05/08 20:55:41;;;;;;;11.52;5.93;;;;;;;;;;6324540;28;20072;-74
2023/05/08 20:58:45;;;;;;;8.15;6.15;;;;;;;;;;6320299;28;20109;-74
2023/05/08 21:01:53;;;;;;;22.20;20.20;;;;;;;;;;6320122;28;20348;-74
2023/05/08 21:04:55;;;;;;;12.85;7.05;;;;;;;;;;6323354;28;20057;-74
2023/05/08 21:08:00;;;;;;;8.50;7.15;;;;;;;;;;6323595;28;20052;-74
2023/05/08 21:11:04;;;;;;;9.55;6.53;;;;;;;;;;6326601;28;20063;-74